Welcome to our Virtual Airline
Sign-in:

Flight MFC36961

  • Submitted By: Karl Klotz
  • Departure Airport: Port Williams SPB (KPR)
  • Arrival Airport: Kitoi Bay SPB (KKB)
  • Aircraft: BELL 412EP (N4121MM)
  • Flight Time: 00.19.55
  • Date Submitted: 19/05/13
  • Route: NO STOPS
  • Status: Accepted
Flight Details
Gross Revenue:
(3 load / $ 42.00 per unit
$ 126.00
Fuel Cost:
(18.1437 fuel used @ 5.1 / unit)
$ 92.53

Additional Log Information:

View Log

FS[15:37] ----- Flight Opened -----
FS[15:37] Cigar Box - 1.1.4.0
FS[15:37] FS: Prepar3D V4
FS[15:37] FSUIPC: v5,15
FS[15:37] Flight Number: MFC36961
FS[15:37] FS Aircraft: C185F SKYWAGON AMPHIBIAN
FS[15:37] FS Model: C185
FS[15:37] FS Type: Cessna
FS[15:37] Departure: KPR
FS[15:37] Arrival: KKB
FS[15:37] Flight Level: 3500
FS[15:37] Flight Type: H
FS[15:37] Passengers: 3
FS[15:37] FOB: 158 lbs
FS[15:37] Gate: n/a
FS[15:37] NOTE: Parking Brake Ignored
FS[15:37] Crash Detection: Disabled
FS[15:37] Engines: 1 Piston
FS[15:37] NOTE: Boarding has started
FS[15:37] Autopilot: Engaged
FS[15:37] AGL: 3 ft
FS[15:37] AMSL: 3 ft
FS[15:37] Landing Gear: Retracted
FS[15:37] Engine 1: Started
FS[15:37] Light Data: Navigation ON
FS[15:37] Light Data: Beacon ON
FS[15:37] Light Data: Strobe lights ON
FS[15:37] Main Door Closed
FS[15:37] COM1: 121.05
FS[15:37] COM2: 127.80
FS[15:37] Transponder: 1200
FS[15:37] NAV1: 115.90
FS[15:37] NAV2: 110.60
FS[15:37] ADF1: 396.0
FS[15:37] ADF2: 240.0
FS[15:37] Navigation Mode: NAV
FS[15:37] NOTE: Taxi started
FS[15:38] NOTE: ----- TAKE OFF -----
FS[15:38] GS: 69 knots
FS[15:38] TAS: 70 knots
FS[15:38] IAS: 70 knots
FS[15:38] VS: 3 fpm
FS[15:38] FOB: 157 lbs
FS[15:38] Heading: 75°
FS[15:38] Pitch: 4°
FS[15:38] Bank: 0°
FS[15:38] Aircraft Weight: 2602,36 lbs
FS[15:38] Nearest Airport: KPR
FS[15:38] Distance: 0,69 miles
FS[15:38] Runway: ???
FS[15:38] Ground Surface: Water
FS[15:38] Ground Condition: Normal
FS[15:38] NOTE: Weather Report
FS[15:38] Wind Heading: 345°
FS[15:38] Wind Speed: 0 knots
FS[15:38] OAT: 14° C
FS[15:38] TAT: 15° C
FS[15:38] Precipitation: None
FS[15:38] Dew Point: 4° C
FS[15:38] Visibility: 62 miles
FS[15:38] METAR: KPRB 131053Z AUTO 30007KT 10SM FEW004 11/09 A3000 RMK AO2 SLP153 T01060094KPRC 131053Z AUTO 19007KT 10SM CLR 08/05 A3007 RMK AO2 SLP134 T00830050KPRG 131055Z AUTO 29007KT 5SM BR SCT031 OVC039 08/07 A2990 RMK AO2 T00750068KPRN 131056Z AUTO 00000KT 7SM CLR 18/16 A2987 RMK AO2 SLP111 T01830161KPRO 131055Z AUTO 00000KT 1/4SM FG OVC002 02/02 A2997 RMK AO2 T00190019KPRS 131055Z AUTO 34006KT 10SM SCT042 OVC060 20/11 A2994 RMK AO2 LTG DSNT NW T01960112KPRX 131056Z AUTO 18003KT 10SM CLR 13/13 A2993 RMK AO2 SLP148 T01330133
FS[15:38] NOTE: Climb started
FS[15:38] Autopilot: Disengaged
FS[15:38] AGL: 26 ft
FS[15:38] AMSL: 26 ft
FS[15:38] Autopilot: Engaged
FS[15:38] AGL: 45 ft
FS[15:38] AMSL: 45 ft
FS[15:38] View Mode: Virtual Cockpit
FS[15:39] Recovery: Flight Saved
FS[15:42] Recovery: Flight Saved
FS[15:45] Recovery: Flight Saved
FS[15:47] Recovery: Flight Saved
FS[15:49] Recovery: Flight Saved
FS[15:51] FS: Paused
FS[15:51] FS: Unpaused
FS[15:53] Autopilot: Disengaged
FS[15:53] AGL: 961 ft
FS[15:53] AMSL: 1479 ft
FS[15:53] Recovery: Flight Saved
FS[15:56] Flaps: Position 1
FS[15:56] GS: 95 knots
FS[15:56] TAS: 95 knots
FS[15:56] IAS: 95 knots
FS[15:56] VS: -242 fpm
FS[15:56] Flaps: Position 2
FS[15:56] GS: 77 knots
FS[15:56] TAS: 79 knots
FS[15:56] IAS: 79 knots
FS[15:56] VS: -241 fpm
FS[15:56] Flaps: Position 3
FS[15:56] GS: 64 knots
FS[15:56] TAS: 64 knots
FS[15:56] IAS: 65 knots
FS[15:56] VS: -332 fpm
FS[15:56] Flaps: Position 4
FS[15:56] GS: 54 knots
FS[15:56] TAS: 55 knots
FS[15:56] IAS: 55 knots
FS[15:56] VS: 104 fpm
FS[15:57] NOTE: ----- LANDED -----
FS[15:57] Landing Rate: -33,83 fpm
FS[15:57] GS: 52 knots
FS[15:57] TAS: 53 knots
FS[15:57] IAS: 53 knots
FS[15:57] VS: -33 fpm
FS[15:57] FOB: 117 lbs
FS[15:57] Heading: 280°
FS[15:57] Pitch: 2°
FS[15:57] Bank: 1°
FS[15:57] Aircraft Weight: 2563,08 lbs
FS[15:57] Nearest Airport: KKB
FS[15:57] Distance: 0,67 miles
FS[15:57] Runway: ???
FS[15:57] Ground Surface: Water
FS[15:57] Ground Condition: Normal
FS[15:57] NOTE: Weather Report
FS[15:57] Wind Heading: 345°
FS[15:57] Wind Speed: 0 knots
FS[15:57] OAT: 14° C
FS[15:57] TAT: 15° C
FS[15:57] Precipitation: None
FS[15:57] Dew Point: 4° C
FS[15:57] Visibility: 62 miles
FS[15:57] METAR: No METAR available for KKB.
FS[15:57] View Mode: Virtual Cockpit
FS[15:57] NOTE: Taxi started
FS[15:57] Gate: n/a
FS[15:57] NOTE: Flight Completed
FS[15:57] FS Aircraft: C185F SKYWAGON AMPHIBIAN
FS[15:57] FS Model: C185
FS[15:57] FS Type: Cessna
FS[15:57] FOB: 117 lbs
FS[15:57] Fuel Used: 40 lbs
FS[15:57] Flight Time: 00:19:55
FS[15:57] Flight Time (Dawn): 00:00:00
FS[15:57] Flight Time (Day): 00:19:55
FS[15:57] Flight Time (Dusk): 00:00:00
FS[15:57] Flight Time (Night): 00:00:00
FS[15:57] Total Landings: 1
FS[15:57] MaxSim Rate: 0x
FS[15:57] Cigar Box - 1.1.4.0
FS[15:57] ----- Flight Closed -----

Route Map